createdAt,value
2023-12-17T00:01:50.800Z,37.13
2023-12-17T00:04:17.845Z,25.13
2023-12-17T00:06:45.044Z,20.23
2023-12-17T00:09:12.082Z,33.03
2023-12-17T00:11:41.671Z,29.25
2023-12-17T00:14:11.296Z,26.97
2023-12-17T00:16:38.460Z,28.47
2023-12-17T00:19:05.467Z,30.53
2023-12-17T00:21:33.535Z,30.57
2023-12-17T00:24:00.483Z,36.07
2023-12-17T00:26:27.789Z,23.83
2023-12-17T00:28:54.638Z,24.03
2023-12-17T00:31:21.894Z,24.57
2023-12-17T00:33:49.029Z,23.30
2023-12-17T00:36:16.408Z,23.53
2023-12-17T00:38:43.414Z,24.30
2023-12-17T00:41:10.575Z,26.33
2023-12-17T00:43:37.566Z,25.52
2023-12-17T00:46:05.085Z,26.37
2023-12-17T00:48:32.576Z,22.90
2023-12-17T00:51:00.138Z,19.00
2023-12-17T00:53:27.112Z,21.13
2023-12-17T00:55:54.605Z,19.93
2023-12-17T00:58:22.657Z,24.23
2023-12-17T01:00:55.149Z,26.27
2023-12-17T01:03:23.134Z,19.10
2023-12-17T01:05:50.711Z,23.63
2023-12-17T01:08:17.684Z,29.43
2023-12-17T01:10:44.854Z,24.53
2023-12-17T01:13:11.975Z,19.40
2023-12-17T01:15:39.369Z,19.33
2023-12-17T01:18:06.567Z,20.58
2023-12-17T01:20:33.905Z,25.50
2023-12-17T01:23:00.741Z,26.02
2023-12-17T01:25:27.971Z,27.07
2023-12-17T01:27:54.824Z,36.20
2023-12-17T01:30:22.236Z,27.27
2023-12-17T01:32:49.363Z,35.57
2023-12-17T01:35:17.201Z,34.37
2023-12-17T01:37:44.080Z,27.40
2023-12-17T01:40:11.680Z,26.67
2023-12-17T01:42:39.051Z,25.57
2023-12-17T01:45:07.392Z,24.33
2023-12-17T01:47:34.728Z,25.67
2023-12-17T01:50:02.418Z,25.57
2023-12-17T01:52:29.597Z,26.80
2023-12-17T01:54:56.823Z,35.33
2023-12-17T01:57:23.828Z,31.27
2023-12-17T01:59:51.682Z,21.10
2023-12-17T02:02:18.623Z,27.70
2023-12-17T02:04:46.105Z,23.07
2023-12-17T02:07:13.011Z,24.47
2023-12-17T02:09:40.370Z,21.97
2023-12-17T02:12:07.296Z,25.57
2023-12-17T02:14:34.474Z,21.60
2023-12-17T02:17:01.486Z,21.37
2023-12-17T02:19:28.844Z,26.00
2023-12-17T02:21:55.766Z,24.87
2023-12-17T02:24:23.129Z,24.93
2023-12-17T02:26:50.119Z,20.87
2023-12-17T02:29:17.696Z,20.30
2023-12-17T02:31:44.545Z,24.10
2023-12-17T02:34:11.906Z,26.97
2023-12-17T02:36:41.549Z,25.30
2023-12-17T02:39:10.290Z,20.23
2023-12-17T02:41:37.142Z,26.33
2023-12-17T02:44:04.558Z,21.47
2023-12-17T02:46:31.403Z,23.10
2023-12-17T02:48:58.658Z,23.73
2023-12-17T02:51:25.671Z,23.43
2023-12-17T02:53:52.873Z,24.67
2023-12-17T02:56:19.810Z,34.67
2023-12-17T02:58:47.041Z,24.30
2023-12-17T03:01:14.249Z,16.83
2023-12-17T03:03:41.531Z,17.57
2023-12-17T03:06:08.612Z,40.30
2023-12-17T03:08:39.075Z,22.37
2023-12-17T03:11:06.102Z,17.83
2023-12-17T03:13:33.350Z,25.50
2023-12-17T03:16:00.297Z,26.27
2023-12-17T03:18:27.663Z,24.60
2023-12-17T03:20:54.743Z,22.10
2023-12-17T03:23:21.922Z,21.87
2023-12-17T03:25:48.886Z,23.47
2023-12-17T03:28:16.039Z,32.15
2023-12-17T03:30:43.137Z,24.00
2023-12-17T03:33:12.239Z,21.92
2023-12-17T03:35:39.250Z,25.17
2023-12-17T03:38:07.106Z,26.53
2023-12-17T03:40:34.485Z,23.83
2023-12-17T03:43:01.660Z,23.37
2023-12-17T03:45:28.583Z,21.77
2023-12-17T03:47:55.860Z,25.17
2023-12-17T03:50:22.804Z,27.33
2023-12-17T03:52:50.197Z,20.88
2023-12-17T03:55:17.132Z,22.75
2023-12-17T03:57:44.421Z,25.40
2023-12-17T04:00:12.088Z,28.03
2023-12-17T04:02:39.341Z,22.23
2023-12-17T04:05:07.793Z,22.15
2023-12-17T04:07:34.985Z,27.33
2023-12-17T04:10:02.759Z,32.07
2023-12-17T04:12:30.203Z,25.33
2023-12-17T04:14:57.086Z,23.80
2023-12-17T04:17:24.322Z,25.90
2023-12-17T04:19:51.269Z,27.67
2023-12-17T04:22:18.412Z,28.60
2023-12-17T04:24:45.294Z,31.20
2023-12-17T04:27:12.523Z,29.57
2023-12-17T04:29:39.460Z,34.70
2023-12-17T04:32:07.172Z,34.93
2023-12-17T04:34:34.164Z,35.83
2023-12-17T04:37:01.371Z,27.10
2023-12-17T04:39:28.409Z,30.00
2023-12-17T04:41:55.656Z,32.00
2023-12-17T04:44:22.652Z,35.57
2023-12-17T04:46:49.871Z,28.77
2023-12-17T04:49:16.925Z,31.23
2023-12-17T04:51:44.231Z,33.47
2023-12-17T04:54:11.568Z,37.58
2023-12-17T04:56:38.931Z,34.37
2023-12-17T04:59:05.798Z,40.45
2023-12-17T05:01:32.981Z,33.43
2023-12-17T05:04:00.087Z,32.83
2023-12-17T05:06:27.798Z,25.40
2023-12-17T05:08:54.780Z,28.17
2023-12-17T05:11:21.975Z,30.70
2023-12-17T05:13:48.979Z,29.57
2023-12-17T05:16:16.132Z,30.53
2023-12-17T05:18:43.219Z,32.50
2023-12-17T05:21:10.659Z,29.77
2023-12-17T05:23:37.556Z,34.77
2023-12-17T05:26:04.932Z,26.73
2023-12-17T05:28:31.847Z,33.80
2023-12-17T05:30:59.214Z,36.93
2023-12-17T05:33:26.298Z,29.57
2023-12-17T05:35:53.885Z,33.40
2023-12-17T05:38:22.357Z,32.80
2023-12-17T05:40:49.550Z,31.80
2023-12-17T05:43:16.452Z,38.87
2023-12-17T05:45:50.795Z,33.97
2023-12-17T05:48:25.198Z,30.77
2023-12-17T05:50:52.557Z,36.30
2023-12-17T05:53:22.966Z,30.83
2023-12-17T05:55:50.592Z,31.43
2023-12-17T05:58:17.480Z,40.77
2023-12-17T06:00:45.000Z,28.37
2023-12-17T06:03:11.947Z,33.70
2023-12-17T06:05:39.271Z,26.83
2023-12-17T06:08:06.202Z,31.87
2023-12-17T06:10:33.736Z,36.23
2023-12-17T06:13:00.623Z,31.42
2023-12-17T06:15:28.248Z,33.17
2023-12-17T06:17:55.662Z,36.73
2023-12-17T06:20:24.321Z,34.60
2023-12-17T06:22:53.533Z,31.23
2023-12-17T06:25:20.762Z,38.00
2023-12-17T06:27:47.610Z,30.55
2023-12-17T06:30:15.020Z,34.28
2023-12-17T06:32:43.167Z,32.58
2023-12-17T06:35:10.420Z,34.85
2023-12-17T06:37:37.539Z,31.97
2023-12-17T06:40:07.273Z,34.93
2023-12-17T06:42:35.565Z,42.47
2023-12-17T06:45:02.969Z,36.72
2023-12-17T06:47:30.118Z,36.57
2023-12-17T06:49:57.634Z,33.95
2023-12-17T06:52:24.570Z,31.25
2023-12-17T06:54:51.824Z,29.90
2023-12-17T06:57:18.837Z,29.97
2023-12-17T06:59:46.675Z,31.47
2023-12-17T07:02:13.528Z,32.40
2023-12-17T07:04:40.756Z,40.63
2023-12-17T07:07:07.651Z,31.02
2023-12-17T07:09:35.123Z,40.43
2023-12-17T07:12:02.052Z,27.40
2023-12-17T07:14:29.614Z,38.53
2023-12-17T07:16:58.325Z,33.45
2023-12-17T07:19:27.055Z,36.70
2023-12-17T07:21:54.026Z,38.70
2023-12-17T07:24:21.304Z,32.25
2023-12-17T07:26:49.760Z,38.05
2023-12-17T07:29:17.288Z,33.08
2023-12-17T07:31:44.409Z,35.90
2023-12-17T07:34:12.003Z,29.83
2023-12-17T07:36:38.939Z,36.40
2023-12-17T07:39:06.307Z,37.22
2023-12-17T07:41:33.410Z,39.10
2023-12-17T07:44:00.582Z,34.10
2023-12-17T07:46:27.629Z,34.42
2023-12-17T07:48:54.917Z,30.92
2023-12-17T07:51:22.203Z,24.65
2023-12-17T07:53:49.521Z,32.50
2023-12-17T07:56:16.554Z,34.17
2023-12-17T07:58:43.698Z,37.50
2023-12-17T08:01:10.938Z,33.10
2023-12-17T08:03:38.356Z,32.75
2023-12-17T08:06:05.723Z,29.55
2023-12-17T08:08:33.002Z,32.40
2023-12-17T08:10:59.903Z,25.60
2023-12-17T08:13:27.128Z,28.52
2023-12-17T08:15:56.110Z,40.08
2023-12-17T08:18:23.428Z,25.52
2023-12-17T08:20:50.573Z,34.67
2023-12-17T08:23:17.929Z,22.98
2023-12-17T08:25:44.819Z,32.97
2023-12-17T08:28:12.063Z,27.73
2023-12-17T08:30:40.981Z,27.92
2023-12-17T08:33:08.717Z,29.67
2023-12-17T08:35:39.074Z,30.73
2023-12-17T08:38:07.368Z,37.83
2023-12-17T08:40:35.509Z,32.88
2023-12-17T08:43:04.100Z,31.88
2023-12-17T08:45:31.779Z,44.58
2023-12-17T08:47:59.221Z,46.22
2023-12-17T08:50:58.516Z,40.92
2023-12-17T08:53:27.709Z,48.53
2023-12-17T08:55:55.036Z,44.53
2023-12-17T08:58:22.275Z,45.22
2023-12-17T09:00:49.460Z,43.70
2023-12-17T09:03:17.136Z,38.10
2023-12-17T09:05:44.578Z,38.50
2023-12-17T09:08:11.994Z,36.53
2023-12-17T09:10:38.884Z,51.28
2023-12-17T09:13:06.185Z,41.50
2023-12-17T09:15:33.103Z,45.65
2023-12-17T09:18:00.569Z,39.15
2023-12-17T09:20:27.602Z,33.28
2023-12-17T09:22:54.834Z,36.65
2023-12-17T09:25:21.755Z,28.13
2023-12-17T09:27:49.194Z,42.13
2023-12-17T09:30:16.460Z,34.63
2023-12-17T09:32:45.445Z,33.55
2023-12-17T09:35:13.766Z,41.20
2023-12-17T09:37:42.255Z,34.40
2023-12-17T09:40:09.752Z,38.45
2023-12-17T09:42:37.017Z,34.90
2023-12-17T09:45:04.539Z,34.40
2023-12-17T09:47:31.852Z,30.98
2023-12-17T09:49:58.776Z,33.10
2023-12-17T09:52:30.146Z,35.58
2023-12-17T09:54:57.088Z,35.58
2023-12-17T09:57:24.420Z,42.60
2023-12-17T09:59:51.515Z,27.75
2023-12-17T10:02:18.686Z,29.90
2023-12-17T10:04:45.675Z,33.65
2023-12-17T10:07:13.453Z,29.77
2023-12-17T10:09:40.373Z,39.90
2023-12-17T10:12:07.919Z,27.95
2023-12-17T10:14:34.931Z,26.23
2023-12-17T10:17:02.141Z,28.30
2023-12-17T10:19:29.768Z,34.17
2023-12-17T10:21:57.249Z,28.92
2023-12-17T10:24:37.466Z,31.70
2023-12-17T10:27:18.624Z,36.28
2023-12-17T10:29:54.816Z,30.10
2023-12-17T10:32:24.067Z,25.40
2023-12-17T10:34:52.512Z,30.42
2023-12-17T10:37:21.897Z,34.05
2023-12-17T10:39:52.895Z,35.70
2023-12-17T10:42:21.236Z,39.95
2023-12-17T10:44:49.451Z,31.00
2023-12-17T10:47:27.123Z,54.55
2023-12-17T10:49:55.203Z,36.63
2023-12-17T10:52:26.123Z,35.08
2023-12-17T10:54:53.387Z,38.17
2023-12-17T10:57:24.394Z,44.03
2023-12-17T10:59:52.840Z,47.42
2023-12-17T11:02:23.296Z,37.97
2023-12-17T11:04:50.656Z,39.45
2023-12-17T11:07:27.347Z,34.40
2023-12-17T11:10:02.521Z,40.20
2023-12-17T11:12:29.998Z,39.67
2023-12-17T11:15:00.127Z,37.08
2023-12-17T11:17:28.598Z,38.67
2023-12-17T11:19:56.462Z,51.70
2023-12-17T11:22:24.824Z,42.00
2023-12-17T11:24:55.089Z,37.50
2023-12-17T11:27:24.286Z,37.67
2023-12-17T11:29:52.318Z,44.03
2023-12-17T11:32:23.683Z,37.88
2023-12-17T11:34:51.559Z,44.03
2023-12-17T11:37:20.206Z,31.40
2023-12-17T11:39:50.374Z,31.92
2023-12-17T11:42:19.442Z,56.97
2023-12-17T11:44:50.984Z,38.17
2023-12-17T11:47:28.731Z,29.00
2023-12-17T11:50:00.897Z,31.88
2023-12-17T11:52:28.988Z,36.10
2023-12-17T11:55:00.145Z,47.33
2023-12-17T11:57:31.584Z,33.17
2023-12-17T11:59:59.240Z,48.17
2023-12-17T12:02:34.650Z,108.88
2023-12-17T12:05:01.801Z,72.28
2023-12-17T12:07:29.169Z,64.30
2023-12-17T12:10:07.083Z,36.75
2023-12-17T12:12:34.865Z,26.73
2023-12-17T12:15:04.126Z,30.83
2023-12-17T12:17:43.074Z,31.42
2023-12-17T12:20:14.055Z,30.38
2023-12-17T12:22:46.766Z,30.48
2023-12-17T12:25:19.711Z,30.63
2023-12-17T12:27:47.097Z,36.33
2023-12-17T12:30:30.308Z,47.38
2023-12-17T12:33:09.107Z,33.42
2023-12-17T12:35:36.577Z,33.20
2023-12-17T12:38:05.750Z,31.77
2023-12-17T12:40:33.284Z,21.45
2023-12-17T12:43:04.195Z,34.03
2023-12-17T12:45:33.075Z,33.88
2023-12-17T12:48:01.437Z,34.83
2023-12-17T12:50:28.622Z,34.83
2023-12-17T12:52:55.785Z,38.90
2023-12-17T12:55:22.771Z,26.98
2023-12-17T12:57:50.081Z,30.38
2023-12-17T13:00:17.728Z,29.98
2023-12-17T13:02:45.655Z,29.48
2023-12-17T13:05:12.569Z,28.90
2023-12-17T13:07:40.595Z,31.88
2023-12-17T13:10:11.249Z,29.70
2023-12-17T13:12:39.644Z,27.92
2023-12-17T13:15:08.295Z,30.35
2023-12-17T13:17:35.956Z,26.75
2023-12-17T13:20:03.735Z,31.08
2023-12-17T13:22:30.975Z,31.15
2023-12-17T13:24:58.570Z,31.65
2023-12-17T13:27:25.874Z,31.52
2023-12-17T13:29:52.789Z,28.48
2023-12-17T13:32:20.007Z,28.15
2023-12-17T13:34:46.881Z,40.08
2023-12-17T13:37:14.488Z,30.95
2023-12-17T13:39:41.431Z,29.08
2023-12-17T13:42:08.702Z,32.92
2023-12-17T13:44:35.551Z,28.70
2023-12-17T13:47:02.795Z,29.95
2023-12-17T13:49:30.504Z,31.88
2023-12-17T13:51:57.915Z,31.55
2023-12-17T13:54:24.858Z,33.72
2023-12-17T13:56:52.248Z,32.75
2023-12-17T13:59:19.165Z,35.47
2023-12-17T14:01:46.815Z,33.80
2023-12-17T14:04:13.756Z,35.00
2023-12-17T14:06:41.186Z,35.38
2023-12-17T14:09:08.388Z,34.50
2023-12-17T14:11:39.535Z,33.80
2023-12-17T14:14:07.425Z,27.90
2023-12-17T14:16:38.191Z,31.50
2023-12-17T14:19:05.836Z,36.97
2023-12-17T14:21:34.596Z,30.48
2023-12-17T14:24:02.058Z,33.17
2023-12-17T14:26:29.307Z,35.20
2023-12-17T14:28:56.306Z,34.03
2023-12-17T14:31:30.764Z,36.17
2023-12-17T14:34:03.032Z,38.65
2023-12-17T14:36:32.568Z,33.88
2023-12-17T14:38:59.512Z,56.58
2023-12-17T14:41:26.705Z,35.75
2023-12-17T14:43:53.582Z,45.10
2023-12-17T14:46:20.822Z,45.90
2023-12-17T14:48:47.736Z,29.35
2023-12-17T14:51:15.019Z,39.83
2023-12-17T14:53:49.754Z,48.97
2023-12-17T14:56:20.558Z,34.45
2023-12-17T14:58:47.469Z,37.25
2023-12-17T15:01:21.446Z,39.28
2023-12-17T15:03:55.507Z,34.75
2023-12-17T15:06:25.975Z,40.20
2023-12-17T15:08:53.571Z,34.75
2023-12-17T15:11:20.819Z,35.92
2023-12-17T15:13:47.862Z,40.70
2023-12-17T15:16:15.047Z,41.25
2023-12-17T15:18:42.109Z,47.03
2023-12-17T15:21:09.460Z,55.33
2023-12-17T15:23:37.301Z,61.58
2023-12-17T15:26:04.609Z,45.95
2023-12-17T15:28:31.663Z,48.40
2023-12-17T15:30:58.919Z,33.63
2023-12-17T15:33:26.976Z,35.47
2023-12-17T15:35:54.329Z,34.70
2023-12-17T15:38:22.047Z,41.20
2023-12-17T15:40:49.229Z,38.50
2023-12-17T15:43:16.196Z,40.85
2023-12-17T15:45:43.335Z,39.45
2023-12-17T15:48:10.364Z,41.33
2023-12-17T15:50:37.605Z,46.40
2023-12-17T15:53:04.657Z,31.63
2023-12-17T15:55:31.866Z,36.30
2023-12-17T15:57:58.735Z,45.20
2023-12-17T16:00:25.964Z,45.28
2023-12-17T16:02:53.120Z,36.63
2023-12-17T16:05:20.309Z,37.65
2023-12-17T16:07:49.992Z,43.58
2023-12-17T16:10:17.475Z,57.83
2023-12-17T16:12:45.133Z,78.28
2023-12-17T16:15:12.472Z,40.40
2023-12-17T16:17:39.547Z,36.30
2023-12-17T16:20:07.617Z,41.90
2023-12-17T16:22:34.618Z,40.20
2023-12-17T16:25:04.798Z,44.15
2023-12-17T16:27:31.796Z,42.15
2023-12-17T16:29:59.038Z,47.85
2023-12-17T16:32:26.046Z,38.53
2023-12-17T16:34:53.268Z,41.53
2023-12-17T16:37:21.294Z,51.33
2023-12-17T16:39:48.494Z,55.38
2023-12-17T16:42:15.433Z,43.40
2023-12-17T16:44:42.641Z,41.75
2023-12-17T16:47:09.493Z,49.75
2023-12-17T16:49:37.037Z,45.58
2023-12-17T16:52:04.120Z,45.63
2023-12-17T16:54:31.365Z,53.25
2023-12-17T16:56:58.208Z,49.72
2023-12-17T16:59:25.818Z,60.22
2023-12-17T17:01:55.102Z,48.63
2023-12-17T17:04:22.724Z,45.08
2023-12-17T17:06:49.705Z,55.20
2023-12-17T17:09:18.553Z,63.65
2023-12-17T17:11:45.850Z,54.38
2023-12-17T17:14:13.004Z,44.00
2023-12-17T17:16:39.980Z,46.92
2023-12-17T17:19:07.197Z,51.47
2023-12-17T17:21:34.532Z,50.47
2023-12-17T17:24:01.907Z,50.00
2023-12-17T17:26:28.888Z,45.80
2023-12-17T17:28:56.112Z,40.13
2023-12-17T17:31:23.479Z,51.17
2023-12-17T17:33:52.916Z,40.10
2023-12-17T17:36:21.927Z,40.60
2023-12-17T17:38:49.528Z,43.30
2023-12-17T17:41:16.677Z,47.60
2023-12-17T17:43:44.297Z,43.95
2023-12-17T17:46:11.565Z,41.08
2023-12-17T17:48:39.401Z,36.83
2023-12-17T17:51:07.125Z,61.33
2023-12-17T17:53:35.711Z,49.25
2023-12-17T17:56:04.668Z,43.25
2023-12-17T17:58:31.885Z,41.67
2023-12-17T18:00:59.704Z,45.97
2023-12-17T18:03:27.520Z,55.97
2023-12-17T18:05:55.126Z,43.47
2023-12-17T18:08:22.347Z,35.80
2023-12-17T18:10:49.345Z,41.35
2023-12-17T18:13:16.904Z,59.13
2023-12-17T18:15:44.004Z,55.90
2023-12-17T18:18:11.408Z,44.30
2023-12-17T18:20:38.423Z,53.83
2023-12-17T18:23:05.693Z,43.08
2023-12-17T18:25:32.544Z,55.35
2023-12-17T18:27:59.816Z,49.13
2023-12-17T18:30:29.004Z,43.15
2023-12-17T18:32:57.855Z,49.33
2023-12-17T18:35:24.795Z,46.72
2023-12-17T18:37:51.999Z,47.13
2023-12-17T18:40:18.916Z,43.13
2023-12-17T18:42:46.446Z,42.53
2023-12-17T18:45:15.879Z,39.35
2023-12-17T18:47:43.155Z,43.88
2023-12-17T18:50:10.158Z,37.17
2023-12-17T18:52:37.366Z,42.92
2023-12-17T18:55:05.236Z,42.78
2023-12-17T18:57:32.757Z,34.38
2023-12-17T19:00:00.124Z,47.88
2023-12-17T19:02:27.739Z,34.55
2023-12-17T19:04:54.745Z,33.30
2023-12-17T19:07:24.891Z,55.08
2023-12-17T19:09:51.981Z,35.92
2023-12-17T19:12:19.948Z,45.58
2023-12-17T19:14:47.723Z,39.70
2023-12-17T19:17:16.287Z,56.95
2023-12-17T19:19:43.793Z,39.40
2023-12-17T19:22:11.302Z,37.55
2023-12-17T19:24:38.828Z,34.92
2023-12-17T19:27:06.564Z,31.15
2023-12-17T19:29:35.202Z,35.33
2023-12-17T19:32:03.651Z,43.58
2023-12-17T19:34:40.461Z,41.60
2023-12-17T19:37:08.185Z,41.75
2023-12-17T19:39:38.126Z,54.92
2023-12-17T19:42:09.623Z,42.75
2023-12-17T19:44:36.625Z,42.53
2023-12-17T19:47:05.159Z,39.08
2023-12-17T19:49:32.216Z,62.67
2023-12-17T19:51:59.578Z,43.42
2023-12-17T19:54:26.717Z,34.47
2023-12-17T19:56:53.943Z,36.22
2023-12-17T19:59:20.841Z,30.85
2023-12-17T20:01:48.640Z,43.13
2023-12-17T20:04:15.907Z,32.47
2023-12-17T20:06:43.382Z,37.75
2023-12-17T20:09:10.502Z,39.10
2023-12-17T20:11:38.135Z,43.83
2023-12-17T20:14:05.013Z,34.17
2023-12-17T20:16:32.225Z,43.17
2023-12-17T20:19:00.246Z,41.78
2023-12-17T20:21:27.756Z,36.60
2023-12-17T20:23:54.718Z,47.00
2023-12-17T20:26:22.028Z,49.47
2023-12-17T20:28:49.134Z,54.25
2023-12-17T20:31:17.075Z,46.95
2023-12-17T20:33:45.211Z,49.53
2023-12-17T20:36:13.606Z,48.25
2023-12-17T20:38:41.186Z,41.70
2023-12-17T20:41:08.496Z,36.33
2023-12-17T20:43:35.785Z,40.28
2023-12-17T20:46:04.292Z,38.97
2023-12-17T20:48:31.819Z,39.75
2023-12-17T20:50:59.204Z,44.60
2023-12-17T20:53:26.070Z,42.78
2023-12-17T20:55:53.503Z,44.10
2023-12-17T20:58:20.587Z,51.40
2023-12-17T21:00:48.722Z,42.53
2023-12-17T21:03:15.766Z,38.88
2023-12-17T21:05:43.311Z,44.05
2023-12-17T21:08:10.331Z,38.63
2023-12-17T21:10:37.744Z,38.33
2023-12-17T21:13:04.784Z,36.65
2023-12-17T21:15:31.987Z,41.53
2023-12-17T21:17:59.165Z,37.53
2023-12-17T21:20:28.242Z,38.75
2023-12-17T21:22:55.215Z,37.22
2023-12-17T21:25:22.358Z,36.15
2023-12-17T21:27:49.339Z,36.15
2023-12-17T21:30:16.692Z,36.75
2023-12-17T21:32:43.930Z,40.03
2023-12-17T21:35:12.201Z,32.22
2023-12-17T21:37:39.595Z,31.38
2023-12-17T21:40:08.397Z,37.22
2023-12-17T21:42:35.516Z,40.03
2023-12-17T21:45:03.215Z,45.45
2023-12-17T21:47:30.160Z,41.60
2023-12-17T21:49:57.352Z,35.22
2023-12-17T21:52:31.792Z,36.38
2023-12-17T21:55:01.951Z,35.60
2023-12-17T21:57:40.527Z,35.03
2023-12-17T22:00:18.488Z,39.22
2023-12-17T22:02:46.790Z,32.53
2023-12-17T22:05:14.382Z,35.08
2023-12-17T22:07:41.818Z,42.13
2023-12-17T22:10:13.437Z,38.78
2023-12-17T22:12:40.336Z,35.15
2023-12-17T22:15:09.070Z,33.17
2023-12-17T22:17:36.910Z,30.70
2023-12-17T22:20:07.426Z,34.95
2023-12-17T22:22:34.379Z,36.40
2023-12-17T22:25:02.123Z,40.97
2023-12-17T22:27:29.509Z,35.70
2023-12-17T22:29:59.990Z,36.67
2023-12-17T22:32:26.917Z,37.88
2023-12-17T22:34:54.209Z,40.65
2023-12-17T22:37:21.118Z,31.75
2023-12-17T22:39:48.848Z,28.85
2023-12-17T22:42:15.874Z,31.67
2023-12-17T22:44:45.170Z,31.35
2023-12-17T22:47:12.241Z,28.52
2023-12-17T22:49:39.624Z,28.23
2023-12-17T22:52:07.197Z,25.05
2023-12-17T22:54:37.785Z,33.17
2023-12-17T22:57:05.448Z,32.28
2023-12-17T22:59:32.771Z,37.65
2023-12-17T23:01:59.755Z,23.20
2023-12-17T23:04:26.969Z,27.00
2023-12-17T23:06:53.893Z,24.55
2023-12-17T23:09:21.071Z,29.80
2023-12-17T23:11:48.454Z,28.33
2023-12-17T23:14:15.688Z,29.35
2023-12-17T23:16:42.660Z,29.00
2023-12-17T23:19:09.990Z,29.45
2023-12-17T23:21:36.945Z,26.00
2023-12-17T23:24:04.403Z,29.17
2023-12-17T23:26:31.259Z,25.20
2023-12-17T23:28:59.079Z,26.63
2023-12-17T23:31:26.151Z,27.27
2023-12-17T23:33:53.648Z,25.95
2023-12-17T23:36:20.898Z,26.77
2023-12-17T23:38:48.298Z,22.95
2023-12-17T23:41:15.310Z,22.88
2023-12-17T23:43:42.495Z,27.35
2023-12-17T23:46:09.379Z,30.25
2023-12-17T23:48:38.173Z,22.88
2023-12-17T23:51:05.342Z,21.83
2023-12-17T23:53:32.567Z,24.50
2023-12-17T23:55:59.447Z,23.25
2023-12-17T23:58:26.684Z,23.58
